• Join FlightAware (Why Join?)
  • Login
  • US Flag 
10:19PM EST


 

Airport Tracker/Info


-or-


 

Live Flight TrackerFlight Track Log ✈ DLA1866 ✈ 08-May-2013 ✈ EDDM / MUC - LIMC / MXP

Flight Track Log - Related Links

Times and Time Zones

All times are in EDT time to prevent confusion due to time zone crossing. See the DLA1866 flight status page for this flight to view local times or setup timezone preferences in your user account.

Time Position Orientation Groundspeed Altitude Reporting Facility
EDT Latitude Longitude Course Direction KTS MPH feet Rate Location/Type
03:49PM 48.0648 11.4418 219° Southwest  Level Estimated
03:50PM 48.0234 11.3929 218° Southwest  Level Estimated
03:51PM 47.9820 11.3441 218° Southwest  Level Estimated
03:52PM 47.9406 11.2954 218° Southwest  Level Estimated
03:53PM 47.8992 11.2467 218° Southwest  Level Estimated
03:54PM 47.8577 11.1982 218° Southwest  Level Estimated
03:55PM 47.8163 11.1497 218° Southwest  Level Estimated
03:56PM 47.7434 11.0647 218° Southwest  Level Estimated
03:57PM 47.6704 10.9800 218° Southwest  Level Estimated
03:58PM 47.5974 10.8955 218° Southwest  Level Estimated
03:59PM 47.5243 10.8112 218° Southwest  Level Estimated
04:00PM 47.4511 10.7272 218° Southwest  Level Estimated
04:01PM 47.3779 10.6433 218° Southwest  Level Estimated
04:02PM 47.3047 10.5598 218° Southwest  Level Estimated
04:03PM 47.2313 10.4764 218° Southwest  Level Estimated
04:04PM 47.1579 10.3933 218° Southwest  Level Estimated
04:05PM 47.0845 10.3104 218° Southwest  Level Estimated
04:06PM 47.0110 10.2278 217° Southwest  Level Estimated
04:07PM 46.9374 10.1454 217° Southwest  Level Estimated
04:08PM 46.8638 10.0632 217° Southwest  Level Estimated
04:09PM 46.7901 9.9812 217° Southwest  Level Estimated
04:10PM 46.7163 9.8994 217° Southwest  Level Estimated
04:11PM 46.6425 9.8179 217° Southwest  Level Estimated
04:12PM 46.5687 9.7366 217° Southwest  Level Estimated
04:13PM 46.4948 9.6555 217° Southwest  Level Estimated
04:14PM 46.4208 9.5747 217° Southwest  Level Estimated
04:15PM 46.3467 9.4940 217° Southwest  Level Estimated
04:16PM 46.2726 9.4136 217° Southwest  Level Estimated
04:17PM 46.1985 9.3334 217° Southwest  Level Estimated
04:18PM 46.1243 9.2534 217° Southwest  Level Estimated
04:19PM 46.0500 9.1736 217° Southwest  Level Estimated
04:20PM 45.9757 9.0941 217° Southwest  Level Estimated
04:21PM 45.9013 9.0147 217° Southwest  Level Estimated
04:22PM 45.8269 8.9356 217° Southwest  Level Estimated
04:23PM 45.7524 8.8566 216° Southwest  Level Estimated
04:24PM 45.6779 8.7779 216° Southwest  Level Estimated
04:25PM 45.6306 8.7281 216° Southwest  Level Estimated
04:26PM 45.6306 8.7281 170° South  Level Estimated
04:27PM 45.6306 8.7281 170° South  Level Estimated
04:28PM 45.6306 8.7281 170° South  Level Estimated
04:29PM 45.6306 8.7281 170° South  Level Estimated
04:30PM 45.6306 8.7281 170° South  Level Estimated
04:31PM 45.6306 8.7281 170° South  Level Estimated
04:32PM 45.6306 8.7281 170° South  Level Estimated
04:33PM 45.6306 8.7281 170° South  Level Estimated
04:34PM 45.6306 8.7281 170° South  Level Estimated
04:35PM 45.6306 8.7281 170° South  Level Estimated